createdAt,value
2016-12-10T00:01:01.188Z,0
2016-12-10T00:02:32.992Z,0
2016-12-10T00:04:05.453Z,0
2016-12-10T00:05:37.203Z,0
2016-12-10T00:07:09.508Z,0
2016-12-10T00:08:41.680Z,0
2016-12-10T00:10:12.997Z,0
2016-12-10T00:11:27.942Z,0
2016-12-10T00:12:59.114Z,0
2016-12-10T00:14:25.601Z,0
2016-12-10T00:15:37.645Z,0
2016-12-10T00:17:08.692Z,0
2016-12-10T00:18:40.254Z,0
2016-12-10T00:20:11.263Z,0
2016-12-10T00:21:37.546Z,0
2016-12-10T00:22:49.490Z,0
2016-12-10T00:24:21.334Z,0
2016-12-10T00:25:52.660Z,0
2016-12-10T00:27:25.299Z,0
2016-12-10T00:28:57.022Z,0
2016-12-10T00:30:28.843Z,0
2016-12-10T00:32:01.097Z,0
2016-12-10T00:33:33.087Z,0
2016-12-10T00:35:04.866Z,0
2016-12-10T00:36:16.670Z,0
2016-12-10T00:37:48.067Z,0
2016-12-10T00:39:13.671Z,0
2016-12-10T00:40:25.927Z,0
2016-12-10T00:41:57.198Z,0
2016-12-10T00:43:28.132Z,0
2016-12-10T00:45:00.280Z,0
2016-12-10T00:47:40.763Z,0
2016-12-10T00:49:07.613Z,0
2016-12-10T00:50:39.205Z,0
2016-12-10T00:51:52.333Z,0
2016-12-10T00:53:23.688Z,0
2016-12-10T00:54:55.595Z,0
2016-12-10T00:56:26.272Z,0
2016-12-10T00:57:58.115Z,0
2016-12-10T00:59:29.052Z,0
2016-12-10T01:01:00.176Z,0
2016-12-10T01:02:11.880Z,0
2016-12-10T01:03:43.048Z,0
2016-12-10T01:05:15.884Z,0
2016-12-10T01:06:41.591Z,0
2016-12-10T01:07:53.538Z,0
2016-12-10T01:09:19.403Z,0
2016-12-10T01:10:50.934Z,0
2016-12-10T01:12:21.838Z,0
2016-12-10T01:13:33.742Z,0
2016-12-10T01:15:06.012Z,0
2016-12-10T01:16:37.350Z,0
2016-12-10T01:18:08.249Z,0
2016-12-10T01:19:34.156Z,0
2016-12-10T01:20:46.075Z,0
2016-12-10T01:22:17.001Z,0
2016-12-10T01:23:48.068Z,0
2016-12-10T01:25:19.779Z,0
2016-12-10T01:26:46.177Z,0
2016-12-10T01:27:58.352Z,0
2016-12-10T01:29:29.185Z,0
2016-12-10T01:31:00.667Z,0
2016-12-10T01:32:32.197Z,0
2016-12-10T01:34:03.514Z,0
2016-12-10T01:35:15.181Z,0
2016-12-10T01:36:46.994Z,0
2016-12-10T01:38:19.316Z,0
2016-12-10T01:39:50.753Z,0
2016-12-10T01:41:25.343Z,0
2016-12-10T01:42:56.587Z,0
2016-12-10T01:44:27.950Z,0
2016-12-10T01:45:58.963Z,0
2016-12-10T01:47:30.392Z,0
2016-12-10T01:48:42.261Z,0
2016-12-10T01:50:13.679Z,0
2016-12-10T01:51:44.926Z,0
2016-12-10T01:53:16.170Z,0
2016-12-10T01:54:47.502Z,0
2016-12-10T01:56:18.874Z,0
2016-12-10T01:57:50.001Z,0
2016-12-10T01:59:02.276Z,0
2016-12-10T02:00:35.216Z,0
2016-12-10T02:02:06.362Z,0
2016-12-10T02:03:38.532Z,0
2016-12-10T02:05:09.246Z,0
2016-12-10T02:06:35.334Z,0
2016-12-10T02:07:47.051Z,0
2016-12-10T02:09:18.253Z,0
2016-12-10T02:10:50.164Z,0
2016-12-10T02:12:21.329Z,0
2016-12-10T02:13:52.580Z,0
2016-12-10T02:15:23.495Z,0
2016-12-10T02:16:35.212Z,0
2016-12-10T02:18:06.193Z,0
2016-12-10T02:19:37.372Z,0
2016-12-10T02:21:08.915Z,0
2016-12-10T02:22:40.046Z,0
2016-12-10T02:24:06.976Z,0
2016-12-10T02:25:18.841Z,0
2016-12-10T02:26:49.744Z,0
2016-12-10T02:28:20.664Z,0
2016-12-10T02:29:52.009Z,0
2016-12-10T02:31:04.237Z,0
2016-12-10T02:32:35.528Z,0
2016-12-10T02:34:06.695Z,0
2016-12-10T02:35:37.666Z,0
2016-12-10T02:37:09.102Z,0
2016-12-10T02:38:40.073Z,0
2016-12-10T02:40:10.962Z,0
2016-12-10T02:41:23.209Z,0
2016-12-10T02:42:54.164Z,0
2016-12-10T02:44:20.280Z,0
2016-12-10T02:45:32.191Z,0
2016-12-10T02:47:03.783Z,0
2016-12-10T02:48:34.780Z,0
2016-12-10T02:50:05.979Z,0
2016-12-10T02:51:37.255Z,0
2016-12-10T02:53:08.349Z,0
2016-12-10T02:54:39.566Z,0
2016-12-10T02:55:51.624Z,0
2016-12-10T02:57:23.600Z,0
2016-12-10T02:58:54.588Z,0
2016-12-10T03:00:25.790Z,0
2016-12-10T03:01:56.656Z,0
2016-12-10T03:03:27.592Z,0
2016-12-10T03:04:59.113Z,0
2016-12-10T03:06:10.794Z,0
2016-12-10T03:07:42.036Z,0
2016-12-10T03:09:12.952Z,0
2016-12-10T03:10:44.172Z,0
2016-12-10T03:12:12.223Z,0
2016-12-10T03:13:23.887Z,0
2016-12-10T03:14:54.957Z,0
2016-12-10T03:16:25.882Z,0
2016-12-10T03:17:57.260Z,0
2016-12-10T03:19:28.181Z,0
2016-12-10T03:20:39.914Z,0
2016-12-10T03:22:10.823Z,0
2016-12-10T03:23:41.800Z,0
2016-12-10T03:25:12.921Z,0
2016-12-10T03:26:24.730Z,0
2016-12-10T03:27:51.367Z,0
2016-12-10T03:29:22.467Z,0
2016-12-10T03:30:34.223Z,0
2016-12-10T03:32:05.652Z,0
2016-12-10T03:33:36.704Z,0
2016-12-10T03:35:07.717Z,0
2016-12-10T03:36:38.647Z,0
2016-12-10T03:38:09.629Z,0
2016-12-10T03:39:40.997Z,0
2016-12-10T03:40:52.689Z,0
2016-12-10T03:42:23.920Z,0
2016-12-10T03:43:54.656Z,0
2016-12-10T03:45:25.644Z,0
2016-12-10T03:46:57.279Z,0
2016-12-10T03:48:28.131Z,0
2016-12-10T03:49:40.393Z,0
2016-12-10T03:51:11.622Z,0
2016-12-10T03:52:42.839Z,0
2016-12-10T03:54:13.843Z,0
2016-12-10T03:55:44.816Z,0
2016-12-10T03:57:15.798Z,0
2016-12-10T03:58:27.910Z,0
2016-12-10T03:59:59.395Z,0
2016-12-10T04:01:30.292Z,0
2016-12-10T04:03:01.040Z,0
2016-12-10T04:04:32.613Z,0
2016-12-10T04:06:03.654Z,0
2016-12-10T04:07:15.372Z,0
2016-12-10T04:08:41.186Z,0
2016-12-10T04:10:12.188Z,0
2016-12-10T04:11:44.395Z,0
2016-12-10T04:12:56.510Z,0
2016-12-10T04:14:22.538Z,0
2016-12-10T04:15:53.530Z,0
2016-12-10T04:17:24.751Z,0
2016-12-10T04:18:36.715Z,0
2016-12-10T04:20:07.653Z,0
2016-12-10T04:21:41.554Z,0
2016-12-10T04:23:12.557Z,0
2016-12-10T04:24:44.063Z,0
2016-12-10T04:26:15.193Z,0
2016-12-10T04:27:46.466Z,0
2016-12-10T04:29:17.558Z,0
2016-12-10T04:30:29.579Z,0
2016-12-10T04:32:01.027Z,0
2016-12-10T04:33:32.430Z,0
2016-12-10T04:35:03.669Z,0
2016-12-10T04:36:35.009Z,0
2016-12-10T04:38:08.915Z,0
2016-12-10T04:39:39.827Z,0
2016-12-10T04:41:10.859Z,0
2016-12-10T04:42:44.050Z,0
2016-12-10T04:43:55.926Z,0
2016-12-10T04:45:27.422Z,0
2016-12-10T04:46:58.323Z,0
2016-12-10T04:48:29.076Z,0
2016-12-10T04:50:00.488Z,0
2016-12-10T04:51:31.569Z,0
2016-12-10T04:52:43.245Z,0
2016-12-10T04:54:14.582Z,0
2016-12-10T04:55:45.632Z,0
2016-12-10T04:57:17.004Z,0
2016-12-10T04:58:48.047Z,0
2016-12-10T05:00:18.931Z,0
2016-12-10T05:01:50.593Z,0
2016-12-10T05:03:02.682Z,0
2016-12-10T05:04:55.331Z,0
2016-12-10T05:06:06.994Z,0
2016-12-10T05:07:38.059Z,0
2016-12-10T05:09:04.889Z,0
2016-12-10T05:10:16.557Z,0
2016-12-10T05:11:47.714Z,0
2016-12-10T05:13:14.020Z,0
2016-12-10T05:14:45.545Z,0
2016-12-10T05:15:57.226Z,0
2016-12-10T05:17:28.610Z,0
2016-12-10T05:18:59.615Z,0
2016-12-10T05:20:32.613Z,0
2016-12-10T05:22:03.987Z,0
2016-12-10T05:23:16.187Z,0
2016-12-10T05:24:47.151Z,0
2016-12-10T05:26:18.469Z,0
2016-12-10T05:27:49.773Z,0
2016-12-10T05:29:20.877Z,0
2016-12-10T05:30:51.846Z,0
2016-12-10T05:32:04.199Z,0
2016-12-10T05:33:35.536Z,0
2016-12-10T05:35:06.469Z,0
2016-12-10T05:36:33.011Z,0
2016-12-10T05:37:45.074Z,0
2016-12-10T05:39:16.211Z,0
2016-12-10T05:40:47.417Z,0
2016-12-10T05:42:18.397Z,0
2016-12-10T05:43:49.520Z,0
2016-12-10T05:45:20.409Z,0
2016-12-10T05:46:32.133Z,0
2016-12-10T05:47:58.708Z,0
2016-12-10T05:49:29.876Z,0
2016-12-10T05:51:00.739Z,0
2016-12-10T05:52:12.916Z,0
2016-12-10T05:53:43.945Z,0
2016-12-10T05:55:39.736Z,0
2016-12-10T05:57:12.404Z,0
2016-12-10T05:58:48.625Z,0
2016-12-10T06:00:22.823Z,0
2016-12-10T06:01:53.956Z,0
2016-12-10T06:03:24.937Z,0
2016-12-10T06:04:36.650Z,0
2016-12-10T06:06:07.879Z,0
2016-12-10T06:07:38.903Z,0
2016-12-10T06:09:10.166Z,0
2016-12-10T06:10:41.083Z,0
2016-12-10T06:12:11.956Z,0
2016-12-10T06:13:46.000Z,0
2016-12-10T06:15:16.844Z,0
2016-12-10T06:16:28.810Z,0
2016-12-10T06:17:59.659Z,0
2016-12-10T06:19:30.574Z,0
2016-12-10T06:20:56.985Z,0
2016-12-10T06:22:08.838Z,0
2016-12-10T06:23:40.347Z,0
2016-12-10T06:25:11.272Z,0
2016-12-10T06:26:42.127Z,0
2016-12-10T06:28:13.097Z,0
2016-12-10T06:29:25.000Z,0
2016-12-10T06:30:56.017Z,0
2016-12-10T06:32:27.638Z,0
2016-12-10T06:33:58.473Z,0
2016-12-10T06:35:29.657Z,0
2016-12-10T06:36:55.695Z,0
2016-12-10T06:38:07.404Z,0
2016-12-10T06:39:38.064Z,0
2016-12-10T06:41:09.034Z,0
2016-12-10T06:42:40.493Z,0
2016-12-10T06:43:52.420Z,0
2016-12-10T06:45:23.283Z,0
2016-12-10T06:46:54.350Z,0
2016-12-10T06:48:25.885Z,0
2016-12-10T06:49:57.056Z,0
2016-12-10T06:51:28.278Z,0
2016-12-10T06:52:39.941Z,0
2016-12-10T06:54:10.912Z,0
2016-12-10T06:56:13.750Z,0
2016-12-10T06:57:44.665Z,0
2016-12-10T06:59:15.586Z,0
2016-12-10T07:00:46.733Z,0
2016-12-10T07:02:18.243Z,0
2016-12-10T07:03:30.421Z,0
2016-12-10T07:05:01.344Z,0
2016-12-10T07:06:27.596Z,0
2016-12-10T07:07:39.327Z,0
2016-12-10T07:09:10.504Z,0
2016-12-10T07:10:41.761Z,0
2016-12-10T07:12:12.656Z,0
2016-12-10T07:13:44.289Z,5
2016-12-10T07:15:15.568Z,5
2016-12-10T07:16:46.539Z,5
2016-12-10T07:17:58.272Z,5
2016-12-10T07:19:29.567Z,5
2016-12-10T07:21:02.086Z,5
2016-12-10T07:22:32.962Z,5
2016-12-10T07:24:04.103Z,10
2016-12-10T07:25:35.279Z,10
2016-12-10T07:27:07.958Z,10
2016-12-10T07:28:38.869Z,10
2016-12-10T07:29:50.841Z,10
2016-12-10T07:31:21.826Z,15
2016-12-10T07:32:53.060Z,15
2016-12-10T07:34:23.952Z,15
2016-12-10T07:35:54.973Z,15
2016-12-10T07:37:26.415Z,15
2016-12-10T07:38:38.135Z,20
2016-12-10T07:40:09.260Z,20
2016-12-10T07:41:39.962Z,20
2016-12-10T07:43:11.270Z,20
2016-12-10T07:44:44.840Z,25
2016-12-10T07:46:16.083Z,25
2016-12-10T07:47:47.274Z,25
2016-12-10T07:49:19.146Z,25
2016-12-10T07:50:31.083Z,30
2016-12-10T07:52:29.679Z,30
2016-12-10T07:54:28.896Z,35
2016-12-10T07:56:04.707Z,35
2016-12-10T07:57:37.625Z,35
2016-12-10T07:59:09.195Z,35
2016-12-10T08:00:41.987Z,40
2016-12-10T08:02:15.350Z,40
2016-12-10T08:03:48.365Z,40
2016-12-10T08:05:00.200Z,40
2016-12-10T08:06:31.433Z,45
2016-12-10T08:08:02.747Z,45
2016-12-10T08:09:33.659Z,45
2016-12-10T08:11:05.504Z,50
2016-12-10T08:12:36.944Z,50
2016-12-10T08:14:08.378Z,50
2016-12-10T08:15:39.602Z,55
2016-12-10T08:16:51.732Z,55
2016-12-10T08:18:22.866Z,60
2016-12-10T08:19:54.145Z,60
2016-12-10T08:21:25.689Z,60
2016-12-10T08:22:56.626Z,60
2016-12-10T08:24:08.443Z,65
2016-12-10T08:25:39.790Z,65
2016-12-10T08:27:10.471Z,65
2016-12-10T08:28:41.650Z,70
2016-12-10T08:30:12.826Z,70
2016-12-10T08:31:43.789Z,70
2016-12-10T08:32:56.200Z,75
2016-12-10T08:34:27.122Z,75
2016-12-10T08:35:58.444Z,70
2016-12-10T08:37:29.534Z,75
2016-12-10T08:39:00.418Z,80
2016-12-10T08:40:31.296Z,80
2016-12-10T08:42:02.970Z,85
2016-12-10T08:43:15.411Z,85
2016-12-10T08:44:46.468Z,85
2016-12-10T08:46:18.209Z,85
2016-12-10T08:47:49.366Z,85
2016-12-10T08:49:20.668Z,85
2016-12-10T08:50:52.155Z,85
2016-12-10T08:52:23.169Z,85
2016-12-10T08:53:35.278Z,80
2016-12-10T08:55:06.581Z,80
2016-12-10T08:56:37.839Z,80
2016-12-10T08:58:08.875Z,85
2016-12-10T08:59:40.190Z,85
2016-12-10T09:01:11.270Z,85
2016-12-10T09:02:23.111Z,85
2016-12-10T09:03:54.313Z,85
2016-12-10T09:05:25.280Z,85
2016-12-10T09:06:56.289Z,85
2016-12-10T09:08:27.421Z,90
2016-12-10T09:09:59.089Z,90
2016-12-10T09:11:30.282Z,90
2016-12-10T09:12:42.064Z,90
2016-12-10T09:14:38.670Z,90
2016-12-10T09:16:09.762Z,95
2016-12-10T09:17:43.782Z,90
2016-12-10T09:19:15.016Z,95
2016-12-10T09:20:26.796Z,95
2016-12-10T09:21:57.733Z,95
2016-12-10T09:23:28.816Z,95
2016-12-10T09:24:58.345Z,95
2016-12-10T09:26:10.093Z,95
2016-12-10T09:27:35.972Z,95
2016-12-10T09:28:47.873Z,95
2016-12-10T09:30:20.570Z,95
2016-12-10T09:31:51.556Z,95
2016-12-10T09:33:22.348Z,95
2016-12-10T09:34:53.730Z,100
2016-12-10T09:36:05.453Z,100
2016-12-10T09:37:37.162Z,100
2016-12-10T09:39:09.199Z,100
2016-12-10T09:40:40.335Z,100
2016-12-10T09:42:13.369Z,100
2016-12-10T09:43:44.753Z,105
2016-12-10T09:45:16.012Z,100
2016-12-10T09:46:47.290Z,105
2016-12-10T09:48:18.613Z,105
2016-12-10T09:49:30.659Z,105
2016-12-10T09:51:02.104Z,105
2016-12-10T09:52:33.667Z,105
2016-12-10T09:54:04.874Z,110
2016-12-10T09:55:36.005Z,110
2016-12-10T09:57:07.483Z,110
2016-12-10T09:58:38.387Z,110
2016-12-10T09:59:50.847Z,110
2016-12-10T10:01:22.108Z,110
2016-12-10T10:02:47.883Z,115
2016-12-10T10:03:59.586Z,115
2016-12-10T10:05:31.135Z,115
2016-12-10T10:07:02.394Z,115
2016-12-10T10:08:33.186Z,115
2016-12-10T10:10:04.303Z,115
2016-12-10T10:11:35.200Z,115
2016-12-10T10:12:47.112Z,115
2016-12-10T10:14:18.308Z,110
2016-12-10T10:15:49.192Z,110
2016-12-10T10:17:20.379Z,105
2016-12-10T10:18:51.413Z,105
2016-12-10T10:20:23.276Z,100
2016-12-10T10:21:54.446Z,100
2016-12-10T10:23:06.512Z,100
2016-12-10T10:24:37.746Z,100
2016-12-10T10:26:09.317Z,100
2016-12-10T10:27:40.297Z,100
2016-12-10T10:29:11.168Z,100
2016-12-10T10:30:43.181Z,100
2016-12-10T10:32:14.260Z,100
2016-12-10T10:33:26.426Z,100
2016-12-10T10:34:57.896Z,100
2016-12-10T10:36:29.707Z,100
2016-12-10T10:38:00.981Z,100
2016-12-10T10:39:33.479Z,100
2016-12-10T10:41:04.468Z,105
2016-12-10T10:42:30.337Z,100
2016-12-10T10:43:42.349Z,100
2016-12-10T10:45:13.446Z,100
2016-12-10T10:46:45.583Z,100
2016-12-10T10:48:19.432Z,100
2016-12-10T10:49:31.551Z,100
2016-12-10T10:51:03.228Z,95
2016-12-10T10:52:34.972Z,100
2016-12-10T10:54:06.076Z,95
2016-12-10T10:55:37.338Z,95
2016-12-10T10:57:09.217Z,90
2016-12-10T10:58:40.368Z,90
2016-12-10T11:00:11.871Z,85
2016-12-10T11:01:23.931Z,90
2016-12-10T11:02:55.493Z,90
2016-12-10T11:04:27.721Z,95
2016-12-10T11:05:58.548Z,95
2016-12-10T11:07:30.237Z,95
2016-12-10T11:09:02.064Z,95
2016-12-10T11:10:33.423Z,95
2016-12-10T11:12:03.541Z,95
2016-12-10T11:13:15.623Z,95
2016-12-10T11:14:47.099Z,100
2016-12-10T11:16:18.667Z,100
2016-12-10T11:17:50.312Z,100
2016-12-10T11:19:21.481Z,100
2016-12-10T11:20:52.963Z,100
2016-12-10T11:22:24.609Z,105
2016-12-10T11:23:36.324Z,105
2016-12-10T11:25:07.669Z,105
2016-12-10T11:26:39.068Z,105
2016-12-10T11:28:10.248Z,105
2016-12-10T11:29:42.191Z,105
2016-12-10T11:31:13.476Z,105
2016-12-10T11:32:44.947Z,105
2016-12-10T11:33:57.124Z,105
2016-12-10T11:35:28.463Z,105
2016-12-10T11:36:59.262Z,105
2016-12-10T11:38:30.492Z,105
2016-12-10T11:40:02.184Z,105
2016-12-10T11:41:28.211Z,105
2016-12-10T11:42:41.313Z,105
2016-12-10T11:44:14.691Z,105
2016-12-10T11:46:12.658Z,105
2016-12-10T11:47:43.950Z,105
2016-12-10T11:48:56.191Z,110
2016-12-10T11:50:27.617Z,110
2016-12-10T11:51:59.125Z,115
2016-12-10T11:53:29.896Z,115
2016-12-10T11:55:01.307Z,115
2016-12-10T11:56:33.701Z,110
2016-12-10T11:58:00.006Z,110
2016-12-10T11:59:11.787Z,110
2016-12-10T12:00:43.294Z,110
2016-12-10T12:02:14.429Z,110
2016-12-10T12:03:45.668Z,105
2016-12-10T12:05:17.481Z,105
2016-12-10T12:06:29.266Z,100
2016-12-10T12:08:00.138Z,95
2016-12-10T12:09:32.514Z,95
2016-12-10T12:11:03.414Z,95
2016-12-10T12:12:34.666Z,100
2016-12-10T12:14:05.797Z,100
2016-12-10T12:15:17.741Z,100
2016-12-10T12:17:11.383Z,100
2016-12-10T12:18:23.482Z,100
2016-12-10T12:19:56.711Z,100
2016-12-10T12:21:23.715Z,100
2016-12-10T12:22:54.588Z,100
2016-12-10T12:24:26.420Z,100
2016-12-10T12:25:57.912Z,95
2016-12-10T12:27:09.880Z,90
2016-12-10T12:28:40.884Z,90
2016-12-10T12:30:11.819Z,90
2016-12-10T12:31:43.032Z,90
2016-12-10T12:33:13.987Z,90
2016-12-10T12:34:45.324Z,90
2016-12-10T12:35:57.469Z,90
2016-12-10T12:37:28.665Z,95
2016-12-10T12:39:00.638Z,100
2016-12-10T12:40:31.322Z,100
2016-12-10T12:41:57.457Z,105
2016-12-10T12:43:09.181Z,105
2016-12-10T12:44:41.052Z,105
2016-12-10T12:46:11.835Z,105
2016-12-10T12:47:43.007Z,105
2016-12-10T12:49:15.166Z,105
2016-12-10T12:50:46.517Z,105
2016-12-10T12:51:58.788Z,105
2016-12-10T12:53:29.948Z,105
2016-12-10T12:55:01.564Z,105
2016-12-10T12:56:32.868Z,105
2016-12-10T12:58:04.217Z,100
2016-12-10T12:59:37.682Z,100
2016-12-10T13:01:11.774Z,95
2016-12-10T13:02:45.535Z,90
2016-12-10T13:04:19.595Z,90
2016-12-10T13:05:53.201Z,90
2016-12-10T13:07:28.869Z,85
2016-12-10T13:09:02.639Z,85
2016-12-10T13:10:37.136Z,85
2016-12-10T13:12:11.941Z,85
2016-12-10T13:14:04.919Z,85
2016-12-10T13:15:39.145Z,85
2016-12-10T13:17:12.701Z,85
2016-12-10T13:18:49.399Z,85
2016-12-10T13:20:27.112Z,85
2016-12-10T13:22:20.918Z,85
2016-12-10T13:23:54.969Z,85
2016-12-10T13:25:29.481Z,80
2016-12-10T13:27:03.876Z,80
2016-12-10T13:28:37.404Z,80
2016-12-10T13:30:11.701Z,80
2016-12-10T13:31:45.356Z,80
2016-12-10T13:33:19.853Z,80
2016-12-10T13:34:53.636Z,75
2016-12-10T13:36:27.787Z,75
2016-12-10T13:38:22.546Z,75
2016-12-10T13:39:57.223Z,75
2016-12-10T13:41:32.002Z,75
2016-12-10T13:43:06.799Z,75
2016-12-10T13:44:40.846Z,75
2016-12-10T13:46:14.986Z,75
2016-12-10T13:47:50.349Z,70
2016-12-10T13:49:24.442Z,70
2016-12-10T13:50:58.477Z,70
2016-12-10T13:52:33.046Z,65
2016-12-10T13:54:26.166Z,65
2016-12-10T13:56:03.353Z,65
2016-12-10T13:57:37.899Z,65
2016-12-10T13:59:06.867Z,65
2016-12-10T14:00:40.838Z,60
2016-12-10T14:02:15.406Z,60
2016-12-10T14:03:49.332Z,60
2016-12-10T14:05:23.847Z,60
2016-12-10T14:06:57.396Z,60
2016-12-10T14:08:32.059Z,60
2016-12-10T14:10:06.009Z,60
2016-12-10T14:11:39.588Z,55
2016-12-10T14:13:13.682Z,55
2016-12-10T14:15:12.002Z,55
2016-12-10T14:16:45.845Z,55
2016-12-10T14:18:21.654Z,55
2016-12-10T14:19:55.997Z,55
2016-12-10T14:21:50.026Z,50
2016-12-10T14:23:23.685Z,50
2016-12-10T14:24:57.716Z,50
2016-12-10T14:26:32.611Z,50
2016-12-10T14:28:06.679Z,45
2016-12-10T14:29:35.429Z,45
2016-12-10T14:31:10.039Z,45
2016-12-10T14:32:44.083Z,45
2016-12-10T14:34:18.741Z,45
2016-12-10T14:35:47.464Z,40
2016-12-10T14:37:18.544Z,40
2016-12-10T14:38:52.529Z,40
2016-12-10T14:40:26.737Z,40
2016-12-10T14:42:00.667Z,35
2016-12-10T14:43:34.249Z,35
2016-12-10T14:45:09.021Z,35
2016-12-10T14:46:43.180Z,30
2016-12-10T14:48:17.314Z,30
2016-12-10T14:49:51.259Z,30
2016-12-10T14:51:25.652Z,30
2016-12-10T14:52:59.151Z,25
2016-12-10T14:54:33.004Z,25
2016-12-10T14:56:26.165Z,25
2016-12-10T14:58:00.287Z,20
2016-12-10T14:59:34.528Z,20
2016-12-10T15:01:09.052Z,20
2016-12-10T15:02:42.965Z,20
2016-12-10T15:04:16.724Z,15
2016-12-10T15:05:50.391Z,15
2016-12-10T15:07:24.375Z,15
2016-12-10T15:08:58.371Z,15
2016-12-10T15:10:33.075Z,10
2016-12-10T15:12:07.159Z,10
2016-12-10T15:14:00.673Z,10
2016-12-10T15:15:34.932Z,10
2016-12-10T15:17:09.416Z,5
2016-12-10T15:18:38.318Z,5
2016-12-10T15:20:12.720Z,5
2016-12-10T15:21:48.051Z,5
2016-12-10T15:23:22.436Z,5
2016-12-10T15:24:56.450Z,5
2016-12-10T15:26:31.329Z,5
2016-12-10T15:28:05.163Z,0
2016-12-10T15:29:34.182Z,0
2016-12-10T15:31:07.783Z,0
2016-12-10T15:32:41.400Z,0
2016-12-10T15:34:17.527Z,0
2016-12-10T15:35:51.506Z,0
2016-12-10T15:37:25.023Z,0
2016-12-10T15:38:58.669Z,0
2016-12-10T15:40:32.496Z,0
2016-12-10T15:42:25.187Z,0
2016-12-10T15:43:54.788Z,0
2016-12-10T15:45:09.080Z,0
2016-12-10T15:46:42.876Z,0
2016-12-10T15:48:13.885Z,0
2016-12-10T15:49:40.481Z,0
2016-12-10T15:50:52.165Z,0
2016-12-10T15:52:23.310Z,0
2016-12-10T15:53:55.304Z,0
2016-12-10T15:55:26.290Z,0
2016-12-10T15:56:57.980Z,0
2016-12-10T15:58:29.593Z,0
2016-12-10T16:00:00.692Z,0
2016-12-10T16:01:12.515Z,0
2016-12-10T16:02:44.059Z,0
2016-12-10T16:04:15.081Z,0
2016-12-10T16:05:46.159Z,0
2016-12-10T16:07:12.599Z,0
2016-12-10T16:08:24.530Z,0
2016-12-10T16:09:55.648Z,0
2016-12-10T16:11:26.863Z,0
2016-12-10T16:12:58.625Z,0
2016-12-10T16:14:36.723Z,0
2016-12-10T16:16:08.513Z,0
2016-12-10T16:17:39.349Z,0
2016-12-10T16:19:11.179Z,0
2016-12-10T16:20:42.751Z,0
2016-12-10T16:22:15.331Z,0
2016-12-10T16:23:46.583Z,0
2016-12-10T16:25:17.964Z,0
2016-12-10T16:26:30.700Z,0
2016-12-10T16:28:01.670Z,0
2016-12-10T16:29:34.760Z,0
2016-12-10T16:31:06.606Z,0
2016-12-10T16:32:38.210Z,0
2016-12-10T16:34:09.993Z,0
2016-12-10T16:35:41.969Z,0
2016-12-10T16:37:14.349Z,0
2016-12-10T16:38:45.800Z,0
2016-12-10T16:40:17.374Z,0
2016-12-10T16:41:30.258Z,0
2016-12-10T16:43:01.500Z,0
2016-12-10T16:44:33.868Z,0
2016-12-10T16:46:05.858Z,0
2016-12-10T16:47:36.996Z,0
2016-12-10T16:49:08.779Z,0
2016-12-10T16:50:41.265Z,0
2016-12-10T16:52:13.818Z,0
2016-12-10T16:53:46.894Z,0
2016-12-10T16:55:20.663Z,0
2016-12-10T16:56:52.926Z,0
2016-12-10T16:58:25.648Z,0
2016-12-10T16:59:57.577Z,0
2016-12-10T17:01:29.163Z,0
2016-12-10T17:03:09.673Z,0
2016-12-10T17:04:43.023Z,0
2016-12-10T17:06:15.796Z,0
2016-12-10T17:07:47.662Z,0
2016-12-10T17:09:21.013Z,0
2016-12-10T17:10:57.067Z,0
2016-12-10T17:12:30.662Z,0
2016-12-10T17:14:30.260Z,0
2016-12-10T17:16:03.489Z,0
2016-12-10T17:17:35.210Z,0
2016-12-10T17:19:07.310Z,0
2016-12-10T17:20:40.941Z,0
2016-12-10T17:22:14.780Z,0
2016-12-10T17:23:47.781Z,0
2016-12-10T17:25:21.216Z,0
2016-12-10T17:26:54.211Z,0
2016-12-10T17:28:23.952Z,0
2016-12-10T17:29:56.127Z,0
2016-12-10T17:31:27.496Z,0
2016-12-10T17:32:59.375Z,0
2016-12-10T17:34:11.876Z,0
2016-12-10T17:35:43.254Z,0
2016-12-10T17:37:14.912Z,0
2016-12-10T17:38:46.395Z,0
2016-12-10T17:40:17.656Z,0
2016-12-10T17:41:55.377Z,0
2016-12-10T17:43:26.472Z,0
2016-12-10T17:44:57.621Z,0
2016-12-10T17:46:30.050Z,0
2016-12-10T17:48:01.750Z,0
2016-12-10T17:49:33.098Z,0
2016-12-10T17:51:04.439Z,0
2016-12-10T17:52:16.824Z,0
2016-12-10T17:53:47.860Z,0
2016-12-10T17:55:20.336Z,0
2016-12-10T17:56:46.727Z,0
2016-12-10T17:58:17.830Z,0
2016-12-10T17:59:30.492Z,0
2016-12-10T18:01:02.102Z,0
2016-12-10T18:02:34.976Z,0
2016-12-10T18:04:07.119Z,0
2016-12-10T18:05:38.239Z,0
2016-12-10T18:07:09.449Z,0
2016-12-10T18:08:42.083Z,0
2016-12-10T18:10:13.463Z,0
2016-12-10T18:11:44.772Z,0
2016-12-10T18:12:57.003Z,0
2016-12-10T18:14:28.289Z,0
2016-12-10T18:15:59.721Z,0
2016-12-10T18:17:30.675Z,0
2016-12-10T18:19:01.914Z,0
2016-12-10T18:20:33.923Z,0
2016-12-10T18:22:05.052Z,0
2016-12-10T18:23:17.082Z,0
2016-12-10T18:24:48.317Z,0
2016-12-10T18:26:20.233Z,0
2016-12-10T18:27:51.644Z,0
2016-12-10T18:29:22.966Z,0
2016-12-10T18:30:35.000Z,0
2016-12-10T18:32:06.447Z,0
2016-12-10T18:33:38.769Z,0
2016-12-10T18:35:09.649Z,0
2016-12-10T18:36:40.769Z,0
2016-12-10T18:38:12.576Z,0
2016-12-10T18:39:43.686Z,0
2016-12-10T18:41:17.516Z,0
2016-12-10T18:42:48.930Z,0
2016-12-10T18:44:00.875Z,0
2016-12-10T18:45:32.450Z,0
2016-12-10T18:48:38.952Z,0
2016-12-10T18:50:37.130Z,0
2016-12-10T18:52:12.751Z,0
2016-12-10T18:53:47.813Z,0
2016-12-10T18:55:43.719Z,0
2016-12-10T18:57:16.879Z,0
2016-12-10T18:58:55.376Z,0
2016-12-10T19:00:27.249Z,0
2016-12-10T19:01:43.465Z,0
2016-12-10T19:02:55.084Z,0
2016-12-10T19:04:12.023Z,0
2016-12-10T19:05:24.837Z,0
2016-12-10T19:06:38.040Z,0
2016-12-10T19:07:55.406Z,0
2016-12-10T19:09:06.857Z,0
2016-12-10T19:10:19.698Z,0
2016-12-10T19:11:31.395Z,0
2016-12-10T19:12:42.435Z,0
2016-12-10T19:13:54.892Z,0
2016-12-10T19:15:07.259Z,0
2016-12-10T19:16:18.874Z,0
2016-12-10T19:17:32.061Z,0
2016-12-10T19:18:44.408Z,0
2016-12-10T19:19:55.596Z,0
2016-12-10T19:21:08.317Z,0
2016-12-10T19:22:49.679Z,0
2016-12-10T19:24:01.301Z,0
2016-12-10T19:25:12.539Z,0
2016-12-10T19:26:24.594Z,0
2016-12-10T19:27:35.762Z,0
2016-12-10T19:28:47.857Z,0
2016-12-10T19:30:14.404Z,0
2016-12-10T19:31:26.859Z,0
2016-12-10T19:32:41.970Z,0
2016-12-10T19:33:53.112Z,0
2016-12-10T19:35:04.878Z,0
2016-12-10T19:36:16.423Z,0
2016-12-10T19:37:27.581Z,0
2016-12-10T19:38:40.031Z,0
2016-12-10T19:41:47.365Z,0
2016-12-10T19:43:23.242Z,0
2016-12-10T19:44:54.304Z,0
2016-12-10T19:46:25.958Z,0
2016-12-10T19:47:58.445Z,0
2016-12-10T19:49:31.694Z,0
2016-12-10T19:51:02.839Z,0
2016-12-10T19:52:35.028Z,0
2016-12-10T19:54:08.196Z,0
2016-12-10T19:55:40.921Z,0
2016-12-10T19:57:09.469Z,0
2016-12-10T19:58:22.320Z,0
2016-12-10T19:59:53.911Z,0
2016-12-10T20:01:25.766Z,0
2016-12-10T20:02:38.710Z,0
2016-12-10T20:04:12.266Z,0
2016-12-10T20:05:45.330Z,0
2016-12-10T20:07:17.554Z,0
2016-12-10T20:08:51.550Z,0
2016-12-10T20:10:23.289Z,0
2016-12-10T20:11:55.554Z,0
2016-12-10T20:13:27.761Z,0
2016-12-10T20:14:59.451Z,0
2016-12-10T20:16:31.411Z,0
2016-12-10T20:18:02.788Z,0
2016-12-10T20:19:15.279Z,0
2016-12-10T20:20:47.852Z,0
2016-12-10T20:22:20.273Z,0
2016-12-10T20:23:52.965Z,0
2016-12-10T20:25:25.527Z,0
2016-12-10T20:26:57.376Z,0
2016-12-10T20:28:29.350Z,0
2016-12-10T20:30:00.657Z,0
2016-12-10T20:31:32.146Z,0
2016-12-10T20:33:03.333Z,0
2016-12-10T20:34:34.788Z,0
2016-12-10T20:36:10.095Z,0
2016-12-10T20:37:46.240Z,0
2016-12-10T20:39:20.004Z,0
2016-12-10T20:40:55.842Z,0
2016-12-10T20:42:30.226Z,0
2016-12-10T20:44:04.070Z,0
2016-12-10T20:45:53.195Z,0
2016-12-10T20:47:06.258Z,0
2016-12-10T20:48:17.398Z,0
2016-12-10T20:49:28.663Z,0
2016-12-10T20:50:40.553Z,0
2016-12-10T20:51:52.143Z,0
2016-12-10T20:53:03.312Z,0
2016-12-10T20:54:14.918Z,0
2016-12-10T20:55:26.530Z,0
2016-12-10T20:56:37.768Z,0
2016-12-10T20:57:49.268Z,0
2016-12-10T20:59:00.670Z,0
2016-12-10T21:00:12.533Z,0
2016-12-10T21:01:23.787Z,0
2016-12-10T21:02:35.121Z,0
2016-12-10T21:03:46.340Z,0
2016-12-10T21:04:57.627Z,0
2016-12-10T21:06:09.131Z,0
2016-12-10T21:07:20.550Z,0
2016-12-10T21:08:31.688Z,0
2016-12-10T21:09:43.197Z,0
2016-12-10T21:11:09.558Z,0
2016-12-10T21:12:20.613Z,0
2016-12-10T21:13:31.782Z,0
2016-12-10T21:14:42.889Z,0
2016-12-10T21:15:54.086Z,0
2016-12-10T21:17:06.828Z,0
2016-12-10T21:18:19.313Z,0
2016-12-10T21:19:31.913Z,0
2016-12-10T21:20:43.470Z,0
2016-12-10T21:21:55.632Z,0
2016-12-10T21:23:07.303Z,0
2016-12-10T21:24:18.838Z,0
2016-12-10T21:25:31.037Z,0
2016-12-10T21:26:46.311Z,0
2016-12-10T21:27:58.447Z,0
2016-12-10T21:29:09.680Z,0